sensor_id;sensor_type;location;lat;lon;timestamp;P1;durP1;ratioP1;P2;durP2;ratioP2
76854;SDS011;66343;44.588;33.450;2023-04-03T00:01:11;10.48;;;3.28;;
76854;SDS011;66343;44.588;33.450;2023-04-03T00:03:43;12.85;;;4.18;;
76854;SDS011;66343;44.588;33.450;2023-04-03T00:06:15;13.98;;;3.75;;
76854;SDS011;66343;44.588;33.450;2023-04-03T00:08:47;9.80;;;3.45;;
76854;SDS011;66343;44.588;33.450;2023-04-03T00:11:22;14.00;;;3.47;;
76854;SDS011;66343;44.588;33.450;2023-04-03T00:13:55;9.48;;;3.03;;
76854;SDS011;66343;44.588;33.450;2023-04-03T00:16:28;11.38;;;3.10;;
76854;SDS011;66343;44.588;33.450;2023-04-03T00:18:59;11.90;;;3.33;;
76854;SDS011;66343;44.588;33.450;2023-04-03T00:21:33;12.68;;;2.95;;
76854;SDS011;66343;44.588;33.450;2023-04-03T00:24:14;15.93;;;3.58;;
76854;SDS011;66343;44.588;33.450;2023-04-03T00:26:46;11.73;;;3.20;;
76854;SDS011;66343;44.588;33.450;2023-04-03T00:29:18;12.80;;;3.13;;
76854;SDS011;66343;44.588;33.450;2023-04-03T00:31:49;12.65;;;3.78;;
76854;SDS011;66343;44.588;33.450;2023-04-03T00:34:23;13.35;;;3.55;;
76854;SDS011;66343;44.588;33.450;2023-04-03T00:36:57;13.20;;;3.17;;
76854;SDS011;66343;44.588;33.450;2023-04-03T00:39:31;11.70;;;3.30;;
76854;SDS011;66343;44.588;33.450;2023-04-03T00:42:02;10.30;;;3.65;;
76854;SDS011;66343;44.588;33.450;2023-04-03T00:47:06;9.80;;;3.38;;
76854;SDS011;66343;44.588;33.450;2023-04-03T00:49:39;10.88;;;3.10;;
76854;SDS011;66343;44.588;33.450;2023-04-03T00:52:10;10.32;;;2.90;;
76854;SDS011;66343;44.588;33.450;2023-04-03T00:54:48;12.57;;;2.63;;
76854;SDS011;66343;44.588;33.450;2023-04-03T00:57:26;12.35;;;3.22;;
76854;SDS011;66343;44.588;33.450;2023-04-03T00:59:57;11.45;;;3.00;;
76854;SDS011;66343;44.588;33.450;2023-04-03T01:02:32;9.20;;;2.92;;
76854;SDS011;66343;44.588;33.450;2023-04-03T01:05:05;11.50;;;3.05;;
76854;SDS011;66343;44.588;33.450;2023-04-03T01:07:45;12.63;;;3.20;;
76854;SDS011;66343;44.588;33.450;2023-04-03T01:10:18;10.68;;;2.53;;
76854;SDS011;66343;44.588;33.450;2023-04-03T01:12:53;12.10;;;2.83;;
76854;SDS011;66343;44.588;33.450;2023-04-03T01:15:26;11.02;;;2.92;;
76854;SDS011;66343;44.588;33.450;2023-04-03T01:18:11;8.52;;;2.63;;
76854;SDS011;66343;44.588;33.450;2023-04-03T01:24:28;10.15;;;2.78;;
76854;SDS011;66343;44.588;33.450;2023-04-03T01:27:04;8.95;;;2.60;;
76854;SDS011;66343;44.588;33.450;2023-04-03T01:29:40;12.27;;;2.88;;
76854;SDS011;66343;44.588;33.450;2023-04-03T01:32:12;10.00;;;2.58;;
76854;SDS011;66343;44.588;33.450;2023-04-03T01:34:47;10.45;;;2.45;;
76854;SDS011;66343;44.588;33.450;2023-04-03T01:37:17;8.80;;;2.42;;
76854;SDS011;66343;44.588;33.450;2023-04-03T01:39:57;9.25;;;2.67;;
76854;SDS011;66343;44.588;33.450;2023-04-03T01:42:29;8.98;;;3.35;;
76854;SDS011;66343;44.588;33.450;2023-04-03T01:44:58;10.35;;;3.10;;
76854;SDS011;66343;44.588;33.450;2023-04-03T01:47:32;9.95;;;2.50;;
76854;SDS011;66343;44.588;33.450;2023-04-03T01:50:04;9.45;;;2.70;;
76854;SDS011;66343;44.588;33.450;2023-04-03T01:52:44;14.38;;;3.47;;
76854;SDS011;66343;44.588;33.450;2023-04-03T01:55:16;12.00;;;2.90;;
76854;SDS011;66343;44.588;33.450;2023-04-03T01:57:48;11.80;;;2.88;;
76854;SDS011;66343;44.588;33.450;2023-04-03T02:00:21;8.05;;;2.72;;
76854;SDS011;66343;44.588;33.450;2023-04-03T02:02:54;12.02;;;2.78;;
76854;SDS011;66343;44.588;33.450;2023-04-03T02:05:36;11.25;;;2.88;;
76854;SDS011;66343;44.588;33.450;2023-04-03T02:08:11;9.20;;;2.97;;
76854;SDS011;66343;44.588;33.450;2023-04-03T02:10:49;12.35;;;2.70;;
76854;SDS011;66343;44.588;33.450;2023-04-03T02:13:22;11.10;;;2.95;;
76854;SDS011;66343;44.588;33.450;2023-04-03T02:15:57;13.18;;;3.10;;
76854;SDS011;66343;44.588;33.450;2023-04-03T02:18:35;10.98;;;2.55;;
76854;SDS011;66343;44.588;33.450;2023-04-03T02:21:07;10.73;;;3.08;;
76854;SDS011;66343;44.588;33.450;2023-04-03T02:23:40;8.45;;;2.75;;
76854;SDS011;66343;44.588;33.450;2023-04-03T02:26:16;10.20;;;2.53;;
76854;SDS011;66343;44.588;33.450;2023-04-03T02:28:49;10.00;;;2.70;;
76854;SDS011;66343;44.588;33.450;2023-04-03T02:31:22;10.38;;;2.60;;
76854;SDS011;66343;44.588;33.450;2023-04-03T02:33:53;12.82;;;3.08;;
76854;SDS011;66343;44.588;33.450;2023-04-03T02:36:25;8.15;;;2.17;;
76854;SDS011;66343;44.588;33.450;2023-04-03T02:38:59;12.40;;;2.72;;
76854;SDS011;66343;44.588;33.450;2023-04-03T02:41:32;10.57;;;2.63;;
76854;SDS011;66343;44.588;33.450;2023-04-03T02:44:10;10.32;;;2.58;;
76854;SDS011;66343;44.588;33.450;2023-04-03T02:46:44;12.10;;;3.03;;
76854;SDS011;66343;44.588;33.450;2023-04-03T02:49:16;10.77;;;2.80;;
76854;SDS011;66343;44.588;33.450;2023-04-03T02:51:50;8.10;;;2.70;;
76854;SDS011;66343;44.588;33.450;2023-04-03T02:54:25;8.85;;;3.05;;
76854;SDS011;66343;44.588;33.450;2023-04-03T02:57:03;10.75;;;2.47;;
76854;SDS011;66343;44.588;33.450;2023-04-03T02:59:36;9.60;;;2.33;;
76854;SDS011;66343;44.588;33.450;2023-04-03T03:02:15;8.77;;;2.97;;
76854;SDS011;66343;44.588;33.450;2023-04-03T03:04:47;9.75;;;2.50;;
76854;SDS011;66343;44.588;33.450;2023-04-03T03:07:19;12.45;;;2.35;;
76854;SDS011;66343;44.588;33.450;2023-04-03T03:09:53;12.23;;;2.53;;
76854;SDS011;66343;44.588;33.450;2023-04-03T03:12:22;9.80;;;2.10;;
76854;SDS011;66343;44.588;33.450;2023-04-03T03:14:56;9.88;;;2.28;;
76854;SDS011;66343;44.588;33.450;2023-04-03T03:17:28;9.43;;;2.20;;
76854;SDS011;66343;44.588;33.450;2023-04-03T03:19:58;9.10;;;2.25;;
76854;SDS011;66343;44.588;33.450;2023-04-03T03:22:31;8.73;;;2.45;;
76854;SDS011;66343;44.588;33.450;2023-04-03T03:25:03;8.13;;;2.75;;
76854;SDS011;66343;44.588;33.450;2023-04-03T03:27:33;7.75;;;1.90;;
76854;SDS011;66343;44.588;33.450;2023-04-03T03:30:02;9.70;;;2.28;;
76854;SDS011;66343;44.588;33.450;2023-04-03T03:32:34;9.40;;;2.60;;
76854;SDS011;66343;44.588;33.450;2023-04-03T03:35:07;10.68;;;2.38;;
76854;SDS011;66343;44.588;33.450;2023-04-03T03:37:40;11.13;;;2.60;;
76854;SDS011;66343;44.588;33.450;2023-04-03T03:40:14;8.88;;;2.50;;
76854;SDS011;66343;44.588;33.450;2023-04-03T03:42:48;9.18;;;2.50;;
76854;SDS011;66343;44.588;33.450;2023-04-03T03:47:49;13.13;;;2.30;;
76854;SDS011;66343;44.588;33.450;2023-04-03T03:50:20;11.75;;;2.75;;
76854;SDS011;66343;44.588;33.450;2023-04-03T03:52:53;7.43;;;1.95;;
76854;SDS011;66343;44.588;33.450;2023-04-03T03:55:23;12.43;;;2.58;;
76854;SDS011;66343;44.588;33.450;2023-04-03T03:57:56;9.10;;;2.60;;
76854;SDS011;66343;44.588;33.450;2023-04-03T04:00:30;9.88;;;2.58;;
76854;SDS011;66343;44.588;33.450;2023-04-03T04:03:03;9.25;;;2.08;;
76854;SDS011;66343;44.588;33.450;2023-04-03T04:05:37;9.15;;;3.00;;
76854;SDS011;66343;44.588;33.450;2023-04-03T04:08:09;10.20;;;2.25;;
76854;SDS011;66343;44.588;33.450;2023-04-03T04:10:40;9.48;;;2.50;;
76854;SDS011;66343;44.588;33.450;2023-04-03T04:13:15;8.18;;;2.25;;
76854;SDS011;66343;44.588;33.450;2023-04-03T04:15:49;9.60;;;2.58;;
76854;SDS011;66343;44.588;33.450;2023-04-03T04:18:20;7.15;;;2.28;;
76854;SDS011;66343;44.588;33.450;2023-04-03T04:20:53;8.25;;;2.60;;
76854;SDS011;66343;44.588;33.450;2023-04-03T04:23:31;7.93;;;2.53;;
76854;SDS011;66343;44.588;33.450;2023-04-03T04:26:02;8.73;;;2.38;;
76854;SDS011;66343;44.588;33.450;2023-04-03T04:28:35;9.98;;;2.25;;
76854;SDS011;66343;44.588;33.450;2023-04-03T04:31:06;9.48;;;2.50;;
76854;SDS011;66343;44.588;33.450;2023-04-03T04:33:38;8.38;;;2.35;;
76854;SDS011;66343;44.588;33.450;2023-04-03T04:36:17;7.53;;;2.10;;
76854;SDS011;66343;44.588;33.450;2023-04-03T04:38:47;8.60;;;2.53;;
76854;SDS011;66343;44.588;33.450;2023-04-03T04:41:19;6.97;;;2.45;;
76854;SDS011;66343;44.588;33.450;2023-04-03T04:43:53;10.10;;;2.60;;
76854;SDS011;66343;44.588;33.450;2023-04-03T04:46:23;9.15;;;2.80;;
76854;SDS011;66343;44.588;33.450;2023-04-03T04:48:58;10.77;;;3.10;;
76854;SDS011;66343;44.588;33.450;2023-04-03T04:51:31;9.77;;;3.25;;
76854;SDS011;66343;44.588;33.450;2023-04-03T04:54:18;9.95;;;2.60;;
76854;SDS011;66343;44.588;33.450;2023-04-03T04:56:56;7.30;;;2.50;;
76854;SDS011;66343;44.588;33.450;2023-04-03T04:59:27;7.70;;;2.20;;
76854;SDS011;66343;44.588;33.450;2023-04-03T05:02:04;9.48;;;2.83;;
76854;SDS011;66343;44.588;33.450;2023-04-03T05:04:34;9.73;;;2.53;;
76854;SDS011;66343;44.588;33.450;2023-04-03T05:07:12;8.82;;;2.85;;
76854;SDS011;66343;44.588;33.450;2023-04-03T05:09:44;10.45;;;2.78;;
76854;SDS011;66343;44.588;33.450;2023-04-03T05:12:16;6.45;;;2.28;;
76854;SDS011;66343;44.588;33.450;2023-04-03T05:14:55;7.18;;;2.17;;
76854;SDS011;66343;44.588;33.450;2023-04-03T05:17:26;7.97;;;2.17;;
76854;SDS011;66343;44.588;33.450;2023-04-03T05:19:57;9.10;;;2.30;;
76854;SDS011;66343;44.588;33.450;2023-04-03T05:22:32;7.50;;;2.38;;
76854;SDS011;66343;44.588;33.450;2023-04-03T05:25:08;6.00;;;2.17;;
76854;SDS011;66343;44.588;33.450;2023-04-03T05:27:41;7.80;;;2.35;;
76854;SDS011;66343;44.588;33.450;2023-04-03T05:30:13;6.22;;;2.13;;
76854;SDS011;66343;44.588;33.450;2023-04-03T05:32:50;8.35;;;2.47;;
76854;SDS011;66343;44.588;33.450;2023-04-03T05:35:27;8.52;;;2.45;;
76854;SDS011;66343;44.588;33.450;2023-04-03T05:38:01;6.63;;;2.60;;
76854;SDS011;66343;44.588;33.450;2023-04-03T05:40:34;5.85;;;1.95;;
76854;SDS011;66343;44.588;33.450;2023-04-03T05:43:06;8.35;;;2.78;;
76854;SDS011;66343;44.588;33.450;2023-04-03T05:45:39;7.80;;;1.98;;
76854;SDS011;66343;44.588;33.450;2023-04-03T05:48:14;8.05;;;2.28;;
76854;SDS011;66343;44.588;33.450;2023-04-03T05:50:47;6.38;;;2.15;;
76854;SDS011;66343;44.588;33.450;2023-04-03T05:53:29;8.27;;;2.75;;
76854;SDS011;66343;44.588;33.450;2023-04-03T05:56:06;7.47;;;2.10;;
76854;SDS011;66343;44.588;33.450;2023-04-03T05:59:01;7.25;;;2.30;;
76854;SDS011;66343;44.588;33.450;2023-04-03T06:01:34;6.68;;;2.13;;
76854;SDS011;66343;44.588;33.450;2023-04-03T06:04:04;6.22;;;2.35;;
76854;SDS011;66343;44.588;33.450;2023-04-03T06:06:52;8.23;;;2.47;;
76854;SDS011;66343;44.588;33.450;2023-04-03T06:09:26;8.23;;;2.28;;
76854;SDS011;66343;44.588;33.450;2023-04-03T06:12:02;10.27;;;2.70;;
76854;SDS011;66343;44.588;33.450;2023-04-03T06:14:34;9.45;;;2.50;;
76854;SDS011;66343;44.588;33.450;2023-04-03T06:17:04;8.60;;;2.08;;
76854;SDS011;66343;44.588;33.450;2023-04-03T06:19:34;6.68;;;2.10;;
76854;SDS011;66343;44.588;33.450;2023-04-03T06:22:05;7.47;;;2.58;;
76854;SDS011;66343;44.588;33.450;2023-04-03T06:24:37;6.60;;;1.90;;
76854;SDS011;66343;44.588;33.450;2023-04-03T06:27:09;7.55;;;2.15;;
76854;SDS011;66343;44.588;33.450;2023-04-03T06:29:41;6.88;;;2.13;;
76854;SDS011;66343;44.588;33.450;2023-04-03T06:32:16;6.22;;;2.20;;
76854;SDS011;66343;44.588;33.450;2023-04-03T06:34:48;8.32;;;2.88;;
76854;SDS011;66343;44.588;33.450;2023-04-03T06:37:19;7.53;;;2.15;;
76854;SDS011;66343;44.588;33.450;2023-04-03T06:39:50;7.03;;;2.40;;
76854;SDS011;66343;44.588;33.450;2023-04-03T06:42:19;6.38;;;2.53;;
76854;SDS011;66343;44.588;33.450;2023-04-03T06:44:59;5.75;;;1.95;;
76854;SDS011;66343;44.588;33.450;2023-04-03T06:50:04;5.95;;;2.20;;
76854;SDS011;66343;44.588;33.450;2023-04-03T06:52:35;6.32;;;2.28;;
76854;SDS011;66343;44.588;33.450;2023-04-03T06:55:05;7.80;;;2.85;;
76854;SDS011;66343;44.588;33.450;2023-04-03T06:57:35;7.82;;;2.42;;
76854;SDS011;66343;44.588;33.450;2023-04-03T07:00:06;6.50;;;2.17;;
76854;SDS011;66343;44.588;33.450;2023-04-03T07:02:36;12.98;;;3.55;;
76854;SDS011;66343;44.588;33.450;2023-04-03T07:07:42;7.68;;;2.15;;
76854;SDS011;66343;44.588;33.450;2023-04-03T07:10:15;6.78;;;2.50;;
76854;SDS011;66343;44.588;33.450;2023-04-03T07:12:45;6.63;;;2.20;;
76854;SDS011;66343;44.588;33.450;2023-04-03T07:15:18;8.23;;;2.20;;
76854;SDS011;66343;44.588;33.450;2023-04-03T07:17:47;7.63;;;2.35;;
76854;SDS011;66343;44.588;33.450;2023-04-03T07:20:19;8.20;;;2.70;;
76854;SDS011;66343;44.588;33.450;2023-04-03T07:22:53;10.25;;;3.47;;
76854;SDS011;66343;44.588;33.450;2023-04-03T07:25:26;9.10;;;3.28;;
76854;SDS011;66343;44.588;33.450;2023-04-03T07:27:56;9.25;;;2.95;;
76854;SDS011;66343;44.588;33.450;2023-04-03T07:30:28;7.75;;;3.05;;
76854;SDS011;66343;44.588;33.450;2023-04-03T07:33:01;10.98;;;3.05;;
76854;SDS011;66343;44.588;33.450;2023-04-03T07:35:32;8.98;;;3.20;;
76854;SDS011;66343;44.588;33.450;2023-04-03T07:38:05;9.77;;;3.30;;
76854;SDS011;66343;44.588;33.450;2023-04-03T07:40:38;9.63;;;3.08;;
76854;SDS011;66343;44.588;33.450;2023-04-03T07:43:17;7.75;;;2.83;;
76854;SDS011;66343;44.588;33.450;2023-04-03T07:45:49;8.95;;;3.33;;
76854;SDS011;66343;44.588;33.450;2023-04-03T07:48:20;11.52;;;3.40;;
76854;SDS011;66343;44.588;33.450;2023-04-03T07:50:51;11.20;;;3.90;;
76854;SDS011;66343;44.588;33.450;2023-04-03T07:53:24;9.18;;;3.22;;
76854;SDS011;66343;44.588;33.450;2023-04-03T07:55:53;12.00;;;3.45;;
76854;SDS011;66343;44.588;33.450;2023-04-03T07:58:25;9.27;;;3.00;;
76854;SDS011;66343;44.588;33.450;2023-04-03T08:00:58;10.52;;;3.35;;
76854;SDS011;66343;44.588;33.450;2023-04-03T08:03:28;14.35;;;3.65;;
76854;SDS011;66343;44.588;33.450;2023-04-03T08:06:01;8.38;;;3.15;;
76854;SDS011;66343;44.588;33.450;2023-04-03T08:08:41;10.82;;;2.72;;
76854;SDS011;66343;44.588;33.450;2023-04-03T08:13:41;7.95;;;2.75;;
76854;SDS011;66343;44.588;33.450;2023-04-03T08:16:17;7.07;;;2.30;;
76854;SDS011;66343;44.588;33.450;2023-04-03T08:18:53;8.05;;;2.80;;
76854;SDS011;66343;44.588;33.450;2023-04-03T08:21:26;8.07;;;2.53;;
76854;SDS011;66343;44.588;33.450;2023-04-03T08:23:57;8.43;;;3.08;;
76854;SDS011;66343;44.588;33.450;2023-04-03T08:26:27;7.55;;;2.50;;
76854;SDS011;66343;44.588;33.450;2023-04-03T08:29:00;7.72;;;2.65;;
76854;SDS011;66343;44.588;33.450;2023-04-03T08:31:30;8.82;;;2.67;;
76854;SDS011;66343;44.588;33.450;2023-04-03T08:34:02;6.78;;;3.10;;
76854;SDS011;66343;44.588;33.450;2023-04-03T08:36:32;8.15;;;2.80;;
76854;SDS011;66343;44.588;33.450;2023-04-03T08:39:10;7.90;;;2.70;;
76854;SDS011;66343;44.588;33.450;2023-04-03T08:41:41;7.53;;;3.05;;
76854;SDS011;66343;44.588;33.450;2023-04-03T08:55:28;7.85;;;3.10;;
76854;SDS011;66343;44.588;33.450;2023-04-03T09:03:46;7.70;;;3.30;;
76854;SDS011;66343;44.588;33.450;2023-04-03T09:06:33;8.40;;;3.30;;
76854;SDS011;66343;44.588;33.450;2023-04-03T09:17:22;8.63;;;3.30;;
76854;SDS011;66343;44.588;33.450;2023-04-03T09:23:15;9.05;;;3.17;;
76854;SDS011;66343;44.588;33.450;2023-04-03T09:26:09;10.32;;;3.25;;
76854;SDS011;66343;44.588;33.450;2023-04-03T09:28:45;9.65;;;3.83;;
76854;SDS011;66343;44.588;33.450;2023-04-03T09:31:21;8.90;;;3.90;;
76854;SDS011;66343;44.588;33.450;2023-04-03T09:34:17;9.05;;;3.75;;
76854;SDS011;66343;44.588;33.450;2023-04-03T09:37:08;7.60;;;3.20;;
76854;SDS011;66343;44.588;33.450;2023-04-03T09:39:55;8.80;;;3.65;;
76854;SDS011;66343;44.588;33.450;2023-04-03T09:42:30;8.98;;;3.53;;
76854;SDS011;66343;44.588;33.450;2023-04-03T09:45:18;7.80;;;3.58;;
76854;SDS011;66343;44.588;33.450;2023-04-03T09:48:12;7.82;;;3.42;;
76854;SDS011;66343;44.588;33.450;2023-04-03T09:50:55;8.32;;;4.07;;
76854;SDS011;66343;44.588;33.450;2023-04-03T09:53:30;9.05;;;3.70;;
76854;SDS011;66343;44.588;33.450;2023-04-03T09:58:47;7.15;;;3.28;;
76854;SDS011;66343;44.588;33.450;2023-04-03T10:01:36;9.70;;;4.28;;
76854;SDS011;66343;44.588;33.450;2023-04-03T10:04:14;8.70;;;3.72;;
76854;SDS011;66343;44.588;33.450;2023-04-03T10:09:29;8.80;;;3.78;;
76854;SDS011;66343;44.588;33.450;2023-04-03T10:15:00;9.75;;;4.18;;
76854;SDS011;66343;44.588;33.450;2023-04-03T10:17:36;8.80;;;3.60;;
76854;SDS011;66343;44.588;33.450;2023-04-03T10:23:10;8.88;;;3.80;;
76854;SDS011;66343;44.588;33.450;2023-04-03T10:31:51;8.65;;;3.25;;
76854;SDS011;66343;44.588;33.450;2023-04-03T10:34:46;8.02;;;3.55;;
76854;SDS011;66343;44.588;33.450;2023-04-03T10:37:51;10.40;;;3.92;;
76854;SDS011;66343;44.588;33.450;2023-04-03T10:40:46;8.75;;;3.38;;
76854;SDS011;66343;44.588;33.450;2023-04-03T10:43:32;7.80;;;3.00;;
76854;SDS011;66343;44.588;33.450;2023-04-03T10:51:56;8.02;;;3.35;;
76854;SDS011;66343;44.588;33.450;2023-04-03T10:55:01;7.57;;;3.17;;
76854;SDS011;66343;44.588;33.450;2023-04-03T10:57:50;8.30;;;3.47;;
76854;SDS011;66343;44.588;33.450;2023-04-03T11:00:41;7.55;;;3.47;;
76854;SDS011;66343;44.588;33.450;2023-04-03T11:03:27;8.70;;;3.42;;
76854;SDS011;66343;44.588;33.450;2023-04-03T11:06:04;10.05;;;3.60;;
76854;SDS011;66343;44.588;33.450;2023-04-03T11:09:01;6.63;;;3.05;;
76854;SDS011;66343;44.588;33.450;2023-04-03T11:11:35;7.40;;;3.25;;
76854;SDS011;66343;44.588;33.450;2023-04-03T11:25:33;7.85;;;3.20;;
76854;SDS011;66343;44.588;33.450;2023-04-03T11:28:09;8.93;;;3.20;;
76854;SDS011;66343;44.588;33.450;2023-04-03T11:36:46;8.73;;;3.50;;
76854;SDS011;66343;44.588;33.450;2023-04-03T11:39:33;7.28;;;3.08;;
76854;SDS011;66343;44.588;33.450;2023-04-03T11:42:43;7.55;;;3.15;;
76854;SDS011;66343;44.588;33.450;2023-04-03T11:51:02;7.90;;;3.50;;
76854;SDS011;66343;44.588;33.450;2023-04-03T11:54:34;6.90;;;2.97;;
76854;SDS011;66343;44.588;33.450;2023-04-03T12:12:20;6.50;;;3.13;;
76854;SDS011;66343;44.588;33.450;2023-04-03T12:15:22;7.20;;;2.97;;
76854;SDS011;66343;44.588;33.450;2023-04-03T12:21:09;8.18;;;3.38;;
76854;SDS011;66343;44.588;33.450;2023-04-03T12:29:35;10.55;;;3.33;;
76854;SDS011;66343;44.588;33.450;2023-04-03T12:41:23;8.43;;;3.15;;
76854;SDS011;66343;44.588;33.450;2023-04-03T12:44:08;8.05;;;2.95;;
76854;SDS011;66343;44.588;33.450;2023-04-03T12:46:57;8.85;;;3.03;;
76854;SDS011;66343;44.588;33.450;2023-04-03T12:49:38;8.68;;;3.00;;
76854;SDS011;66343;44.588;33.450;2023-04-03T12:52:32;7.10;;;3.05;;
76854;SDS011;66343;44.588;33.450;2023-04-03T12:55:14;8.68;;;2.90;;
76854;SDS011;66343;44.588;33.450;2023-04-03T12:57:46;6.78;;;2.70;;
76854;SDS011;66343;44.588;33.450;2023-04-03T13:03:02;9.75;;;3.13;;
76854;SDS011;66343;44.588;33.450;2023-04-03T13:05:38;8.02;;;3.17;;
76854;SDS011;66343;44.588;33.450;2023-04-03T13:08:15;7.32;;;2.78;;
76854;SDS011;66343;44.588;33.450;2023-04-03T13:10:53;7.88;;;2.65;;
76854;SDS011;66343;44.588;33.450;2023-04-03T13:13:29;7.82;;;2.70;;
76854;SDS011;66343;44.588;33.450;2023-04-03T13:16:10;6.88;;;2.85;;
76854;SDS011;66343;44.588;33.450;2023-04-03T13:18:42;9.32;;;3.20;;
76854;SDS011;66343;44.588;33.450;2023-04-03T13:21:13;7.68;;;2.88;;
76854;SDS011;66343;44.588;33.450;2023-04-03T13:23:46;6.25;;;2.55;;
76854;SDS011;66343;44.588;33.450;2023-04-03T13:26:39;8.38;;;3.20;;
76854;SDS011;66343;44.588;33.450;2023-04-03T13:29:26;7.35;;;2.70;;
76854;SDS011;66343;44.588;33.450;2023-04-03T13:32:05;7.28;;;2.78;;
76854;SDS011;66343;44.588;33.450;2023-04-03T13:34:37;8.30;;;2.80;;
76854;SDS011;66343;44.588;33.450;2023-04-03T13:42:37;6.22;;;2.53;;
76854;SDS011;66343;44.588;33.450;2023-04-03T13:45:18;8.70;;;2.95;;
76854;SDS011;66343;44.588;33.450;2023-04-03T13:51:01;7.88;;;2.63;;
76854;SDS011;66343;44.588;33.450;2023-04-03T13:53:49;9.45;;;2.97;;
76854;SDS011;66343;44.588;33.450;2023-04-03T13:56:36;5.85;;;2.88;;
76854;SDS011;66343;44.588;33.450;2023-04-03T14:01:50;9.13;;;3.30;;
76854;SDS011;66343;44.588;33.450;2023-04-03T14:04:28;7.95;;;3.03;;
76854;SDS011;66343;44.588;33.450;2023-04-03T14:07:03;7.18;;;3.25;;
76854;SDS011;66343;44.588;33.450;2023-04-03T14:09:35;10.43;;;2.85;;
76854;SDS011;66343;44.588;33.450;2023-04-03T14:12:17;11.55;;;3.10;;
76854;SDS011;66343;44.588;33.450;2023-04-03T14:15:04;9.60;;;4.60;;
76854;SDS011;66343;44.588;33.450;2023-04-03T14:17:44;7.43;;;2.90;;
76854;SDS011;66343;44.588;33.450;2023-04-03T14:20:20;8.45;;;3.13;;
76854;SDS011;66343;44.588;33.450;2023-04-03T14:22:53;15.38;;;3.78;;
76854;SDS011;66343;44.588;33.450;2023-04-03T14:25:29;8.35;;;3.55;;
76854;SDS011;66343;44.588;33.450;2023-04-03T14:28:15;6.90;;;2.80;;
76854;SDS011;66343;44.588;33.450;2023-04-03T14:30:51;11.48;;;3.28;;
76854;SDS011;66343;44.588;33.450;2023-04-03T14:33:23;7.13;;;2.88;;
76854;SDS011;66343;44.588;33.450;2023-04-03T14:36:00;6.78;;;3.03;;
76854;SDS011;66343;44.588;33.450;2023-04-03T14:38:31;8.35;;;3.38;;
76854;SDS011;66343;44.588;33.450;2023-04-03T14:41:04;8.85;;;3.13;;
76854;SDS011;66343;44.588;33.450;2023-04-03T14:43:47;9.35;;;3.63;;
76854;SDS011;66343;44.588;33.450;2023-04-03T14:46:28;7.55;;;3.13;;
76854;SDS011;66343;44.588;33.450;2023-04-03T14:49:21;6.93;;;2.97;;
76854;SDS011;66343;44.588;33.450;2023-04-03T14:51:53;8.98;;;2.90;;
76854;SDS011;66343;44.588;33.450;2023-04-03T14:54:25;9.40;;;3.17;;
76854;SDS011;66343;44.588;33.450;2023-04-03T14:57:03;8.60;;;3.50;;
76854;SDS011;66343;44.588;33.450;2023-04-03T14:59:43;9.35;;;2.95;;
76854;SDS011;66343;44.588;33.450;2023-04-03T15:05:02;9.35;;;3.13;;
76854;SDS011;66343;44.588;33.450;2023-04-03T15:07:37;16.77;;;3.72;;
76854;SDS011;66343;44.588;33.450;2023-04-03T15:10:19;8.30;;;3.20;;
76854;SDS011;66343;44.588;33.450;2023-04-03T15:12:54;7.80;;;3.03;;
76854;SDS011;66343;44.588;33.450;2023-04-03T15:15:27;9.30;;;3.60;;
76854;SDS011;66343;44.588;33.450;2023-04-03T15:17:58;10.25;;;4.47;;
76854;SDS011;66343;44.588;33.450;2023-04-03T15:20:34;7.95;;;3.65;;
76854;SDS011;66343;44.588;33.450;2023-04-03T15:23:05;7.32;;;3.70;;
76854;SDS011;66343;44.588;33.450;2023-04-03T15:25:37;10.57;;;3.50;;
76854;SDS011;66343;44.588;33.450;2023-04-03T15:28:34;10.10;;;4.03;;
76854;SDS011;66343;44.588;33.450;2023-04-03T15:31:09;8.50;;;3.45;;
76854;SDS011;66343;44.588;33.450;2023-04-03T15:33:42;7.13;;;3.58;;
76854;SDS011;66343;44.588;33.450;2023-04-03T15:36:13;7.43;;;3.33;;
76854;SDS011;66343;44.588;33.450;2023-04-03T15:39:04;12.10;;;3.85;;
76854;SDS011;66343;44.588;33.450;2023-04-03T15:41:37;8.85;;;3.78;;
76854;SDS011;66343;44.588;33.450;2023-04-03T15:44:09;7.57;;;3.50;;
76854;SDS011;66343;44.588;33.450;2023-04-03T15:46:43;7.50;;;3.40;;
76854;SDS011;66343;44.588;33.450;2023-04-03T15:51:50;6.93;;;3.08;;
76854;SDS011;66343;44.588;33.450;2023-04-03T15:54:22;7.95;;;3.40;;
76854;SDS011;66343;44.588;33.450;2023-04-03T15:56:56;7.88;;;3.08;;
76854;SDS011;66343;44.588;33.450;2023-04-03T15:59:30;8.18;;;3.58;;
76854;SDS011;66343;44.588;33.450;2023-04-03T16:02:01;8.57;;;3.22;;
76854;SDS011;66343;44.588;33.450;2023-04-03T16:04:54;7.72;;;2.72;;
76854;SDS011;66343;44.588;33.450;2023-04-03T16:07:28;12.90;;;3.50;;
76854;SDS011;66343;44.588;33.450;2023-04-03T16:10:01;9.30;;;3.72;;
76854;SDS011;66343;44.588;33.450;2023-04-03T16:12:30;7.95;;;3.35;;
76854;SDS011;66343;44.588;33.450;2023-04-03T16:14:59;8.98;;;3.10;;
76854;SDS011;66343;44.588;33.450;2023-04-03T16:17:31;10.00;;;4.05;;
76854;SDS011;66343;44.588;33.450;2023-04-03T16:20:04;9.55;;;3.90;;
76854;SDS011;66343;44.588;33.450;2023-04-03T16:22:38;8.80;;;3.65;;
76854;SDS011;66343;44.588;33.450;2023-04-03T16:25:11;11.25;;;3.70;;
76854;SDS011;66343;44.588;33.450;2023-04-03T16:27:40;7.97;;;3.72;;
76854;SDS011;66343;44.588;33.450;2023-04-03T16:30:12;11.52;;;4.05;;
76854;SDS011;66343;44.588;33.450;2023-04-03T16:32:43;9.73;;;4.15;;
76854;SDS011;66343;44.588;33.450;2023-04-03T16:35:18;9.43;;;3.70;;
76854;SDS011;66343;44.588;33.450;2023-04-03T16:37:48;9.00;;;3.42;;
76854;SDS011;66343;44.588;33.450;2023-04-03T16:40:19;9.98;;;4.10;;
76854;SDS011;66343;44.588;33.450;2023-04-03T16:42:48;9.95;;;3.47;;
76854;SDS011;66343;44.588;33.450;2023-04-03T16:45:17;9.27;;;3.40;;
76854;SDS011;66343;44.588;33.450;2023-04-03T16:47:46;9.50;;;4.30;;
76854;SDS011;66343;44.588;33.450;2023-04-03T16:50:22;10.57;;;3.92;;
76854;SDS011;66343;44.588;33.450;2023-04-03T16:52:56;9.75;;;4.32;;
76854;SDS011;66343;44.588;33.450;2023-04-03T16:55:28;9.85;;;4.18;;
76854;SDS011;66343;44.588;33.450;2023-04-03T16:57:57;8.57;;;3.88;;
76854;SDS011;66343;44.588;33.450;2023-04-03T17:00:32;7.50;;;3.15;;
76854;SDS011;66343;44.588;33.450;2023-04-03T17:05:34;9.73;;;3.72;;
76854;SDS011;66343;44.588;33.450;2023-04-03T17:08:05;8.35;;;3.47;;
76854;SDS011;66343;44.588;33.450;2023-04-03T17:10:34;9.07;;;3.67;;
76854;SDS011;66343;44.588;33.450;2023-04-03T17:13:04;8.70;;;3.28;;
76854;SDS011;66343;44.588;33.450;2023-04-03T17:15:37;7.47;;;3.25;;
76854;SDS011;66343;44.588;33.450;2023-04-03T17:18:08;12.10;;;4.90;;
76854;SDS011;66343;44.588;33.450;2023-04-03T17:20:40;9.18;;;4.65;;
76854;SDS011;66343;44.588;33.450;2023-04-03T17:23:13;9.52;;;3.80;;
76854;SDS011;66343;44.588;33.450;2023-04-03T17:25:50;8.90;;;3.30;;
76854;SDS011;66343;44.588;33.450;2023-04-03T17:28:22;9.55;;;3.85;;
76854;SDS011;66343;44.588;33.450;2023-04-03T17:31:01;8.10;;;3.70;;
76854;SDS011;66343;44.588;33.450;2023-04-03T17:33:31;12.63;;;4.43;;
76854;SDS011;66343;44.588;33.450;2023-04-03T17:36:03;8.10;;;3.28;;
76854;SDS011;66343;44.588;33.450;2023-04-03T17:38:35;9.15;;;3.42;;
76854;SDS011;66343;44.588;33.450;2023-04-03T17:41:06;10.18;;;4.32;;
76854;SDS011;66343;44.588;33.450;2023-04-03T17:43:40;9.38;;;3.88;;
76854;SDS011;66343;44.588;33.450;2023-04-03T17:46:11;8.80;;;3.70;;